sensor_id;sensor_type;location;lat;lon;timestamp;P1;durP1;ratioP1;P2;durP2;ratioP2
39540;SDS011;25219;52.244;21.006;2022-12-08T00:02:22;9.80;;;5.30;;
39540;SDS011;25219;52.244;21.006;2022-12-08T00:04:48;10.63;;;4.95;;
39540;SDS011;25219;52.244;21.006;2022-12-08T00:07:31;10.25;;;5.05;;
39540;SDS011;25219;52.244;21.006;2022-12-08T00:10:15;10.10;;;5.20;;
39540;SDS011;25219;52.244;21.006;2022-12-08T00:12:40;8.40;;;4.87;;
39540;SDS011;25219;52.244;21.006;2022-12-08T00:15:06;10.97;;;4.77;;
39540;SDS011;25219;52.244;21.006;2022-12-08T00:17:31;12.27;;;4.60;;
39540;SDS011;25219;52.244;21.006;2022-12-08T00:19:59;10.75;;;4.18;;
39540;SDS011;25219;52.244;21.006;2022-12-08T00:22:24;12.05;;;4.38;;
39540;SDS011;25219;52.244;21.006;2022-12-08T00:24:49;10.90;;;4.10;;
39540;SDS011;25219;52.244;21.006;2022-12-08T00:27:15;7.20;;;3.85;;
39540;SDS011;25219;52.244;21.006;2022-12-08T00:29:41;9.27;;;3.33;;
39540;SDS011;25219;52.244;21.006;2022-12-08T00:32:07;6.82;;;3.38;;
39540;SDS011;25219;52.244;21.006;2022-12-08T00:34:32;8.10;;;3.50;;
39540;SDS011;25219;52.244;21.006;2022-12-08T00:36:57;5.68;;;3.40;;
39540;SDS011;25219;52.244;21.006;2022-12-08T00:39:23;6.03;;;2.65;;
39540;SDS011;25219;52.244;21.006;2022-12-08T00:41:48;5.60;;;2.77;;
39540;SDS011;25219;52.244;21.006;2022-12-08T00:44:33;6.82;;;2.88;;
39540;SDS011;25219;52.244;21.006;2022-12-08T00:46:58;4.47;;;2.45;;
39540;SDS011;25219;52.244;21.006;2022-12-08T00:49:23;6.32;;;2.72;;
39540;SDS011;25219;52.244;21.006;2022-12-08T00:51:49;5.05;;;2.63;;
39540;SDS011;25219;52.244;21.006;2022-12-08T00:54:14;7.35;;;2.50;;
39540;SDS011;25219;52.244;21.006;2022-12-08T00:56:39;6.90;;;2.40;;
39540;SDS011;25219;52.244;21.006;2022-12-08T00:59:05;10.85;;;2.25;;
39540;SDS011;25219;52.244;21.006;2022-12-08T01:01:31;7.22;;;2.90;;
39540;SDS011;25219;52.244;21.006;2022-12-08T01:03:56;5.55;;;2.83;;
39540;SDS011;25219;52.244;21.006;2022-12-08T01:06:21;7.57;;;2.38;;
39540;SDS011;25219;52.244;21.006;2022-12-08T01:08:47;6.35;;;2.40;;
39540;SDS011;25219;52.244;21.006;2022-12-08T01:11:13;5.93;;;2.37;;
39540;SDS011;25219;52.244;21.006;2022-12-08T01:13:39;6.97;;;2.58;;
39540;SDS011;25219;52.244;21.006;2022-12-08T01:16:06;8.93;;;2.60;;
39540;SDS011;25219;52.244;21.006;2022-12-08T01:18:31;3.15;;;1.88;;
39540;SDS011;25219;52.244;21.006;2022-12-08T01:21:03;7.22;;;2.40;;
39540;SDS011;25219;52.244;21.006;2022-12-08T01:23:28;8.45;;;2.50;;
39540;SDS011;25219;52.244;21.006;2022-12-08T01:25:54;7.53;;;2.28;;
39540;SDS011;25219;52.244;21.006;2022-12-08T01:28:19;5.93;;;2.33;;
39540;SDS011;25219;52.244;21.006;2022-12-08T01:30:44;3.72;;;2.17;;
39540;SDS011;25219;52.244;21.006;2022-12-08T01:33:09;7.23;;;2.93;;
39540;SDS011;25219;52.244;21.006;2022-12-08T01:35:35;3.60;;;2.42;;
39540;SDS011;25219;52.244;21.006;2022-12-08T01:38:00;8.13;;;2.40;;
39540;SDS011;25219;52.244;21.006;2022-12-08T01:40:25;6.27;;;2.97;;
39540;SDS011;25219;52.244;21.006;2022-12-08T01:42:50;4.50;;;2.40;;
39540;SDS011;25219;52.244;21.006;2022-12-08T01:45:26;4.85;;;2.00;;
39540;SDS011;25219;52.244;21.006;2022-12-08T01:47:53;6.00;;;2.15;;
39540;SDS011;25219;52.244;21.006;2022-12-08T01:50:19;5.57;;;2.00;;
39540;SDS011;25219;52.244;21.006;2022-12-08T01:52:47;5.53;;;2.28;;
39540;SDS011;25219;52.244;21.006;2022-12-08T01:55:22;3.88;;;2.00;;
39540;SDS011;25219;52.244;21.006;2022-12-08T01:57:49;3.63;;;1.83;;
39540;SDS011;25219;52.244;21.006;2022-12-08T02:00:15;6.15;;;1.98;;
39540;SDS011;25219;52.244;21.006;2022-12-08T02:05:27;6.07;;;2.20;;
39540;SDS011;25219;52.244;21.006;2022-12-08T02:07:53;12.13;;;2.70;;
39540;SDS011;25219;52.244;21.006;2022-12-08T02:10:20;14.88;;;2.55;;
39540;SDS011;25219;52.244;21.006;2022-12-08T02:12:46;7.18;;;2.53;;
39540;SDS011;25219;52.244;21.006;2022-12-08T02:15:12;4.18;;;2.28;;
39540;SDS011;25219;52.244;21.006;2022-12-08T02:25:21;3.70;;;2.10;;
39540;SDS011;25219;52.244;21.006;2022-12-08T02:38:19;6.10;;;2.80;;
39540;SDS011;25219;52.244;21.006;2022-12-08T02:43:41;5.80;;;2.80;;
39540;SDS011;25219;52.244;21.006;2022-12-08T02:46:08;6.22;;;2.70;;
39540;SDS011;25219;52.244;21.006;2022-12-08T02:48:35;11.93;;;2.88;;
39540;SDS011;25219;52.244;21.006;2022-12-08T02:51:00;5.80;;;2.45;;
39540;SDS011;25219;52.244;21.006;2022-12-08T02:53:29;5.20;;;2.75;;
39540;SDS011;25219;52.244;21.006;2022-12-08T03:08:50;7.88;;;2.97;;
39540;SDS011;25219;52.244;21.006;2022-12-08T03:11:20;5.82;;;2.58;;
39540;SDS011;25219;52.244;21.006;2022-12-08T03:13:53;5.72;;;2.25;;
39540;SDS011;25219;52.244;21.006;2022-12-08T03:16:23;3.85;;;2.33;;
39540;SDS011;25219;52.244;21.006;2022-12-08T03:18:57;7.97;;;2.70;;
39540;SDS011;25219;52.244;21.006;2022-12-08T03:21:24;6.20;;;3.05;;
39540;SDS011;25219;52.244;21.006;2022-12-08T03:23:50;7.03;;;2.92;;
39540;SDS011;25219;52.244;21.006;2022-12-08T03:26:19;9.32;;;2.80;;
39540;SDS011;25219;52.244;21.006;2022-12-08T03:28:46;5.13;;;2.35;;
39540;SDS011;25219;52.244;21.006;2022-12-08T03:31:12;7.97;;;2.90;;
39540;SDS011;25219;52.244;21.006;2022-12-08T03:33:39;9.50;;;2.67;;
39540;SDS011;25219;52.244;21.006;2022-12-08T03:36:05;8.98;;;2.97;;
39540;SDS011;25219;52.244;21.006;2022-12-08T03:38:38;7.13;;;3.63;;
39540;SDS011;25219;52.244;21.006;2022-12-08T03:41:04;7.85;;;3.08;;
39540;SDS011;25219;52.244;21.006;2022-12-08T03:43:45;5.07;;;2.75;;
39540;SDS011;25219;52.244;21.006;2022-12-08T03:46:11;9.77;;;3.22;;
39540;SDS011;25219;52.244;21.006;2022-12-08T03:48:36;7.07;;;3.13;;
39540;SDS011;25219;52.244;21.006;2022-12-08T03:51:01;5.88;;;2.97;;
39540;SDS011;25219;52.244;21.006;2022-12-08T03:53:27;9.03;;;3.80;;
39540;SDS011;25219;52.244;21.006;2022-12-08T03:55:52;11.00;;;3.93;;
39540;SDS011;25219;52.244;21.006;2022-12-08T03:58:17;9.15;;;3.50;;
39540;SDS011;25219;52.244;21.006;2022-12-08T04:00:43;5.83;;;3.57;;
39540;SDS011;25219;52.244;21.006;2022-12-08T04:03:08;9.05;;;4.10;;
39540;SDS011;25219;52.244;21.006;2022-12-08T04:05:33;10.00;;;5.00;;
39540;SDS011;25219;52.244;21.006;2022-12-08T04:07:58;5.43;;;3.80;;
39540;SDS011;25219;52.244;21.006;2022-12-08T04:10:25;7.22;;;3.65;;
39540;SDS011;25219;52.244;21.006;2022-12-08T04:12:50;8.77;;;4.07;;
39540;SDS011;25219;52.244;21.006;2022-12-08T04:15:15;7.17;;;4.10;;
39540;SDS011;25219;52.244;21.006;2022-12-08T04:17:40;10.20;;;3.95;;
39540;SDS011;25219;52.244;21.006;2022-12-08T04:20:05;15.10;;;4.93;;
39540;SDS011;25219;52.244;21.006;2022-12-08T04:22:31;9.35;;;4.65;;
39540;SDS011;25219;52.244;21.006;2022-12-08T04:24:57;12.03;;;5.40;;
39540;SDS011;25219;52.244;21.006;2022-12-08T04:27:22;11.20;;;4.63;;
39540;SDS011;25219;52.244;21.006;2022-12-08T04:29:47;11.60;;;5.15;;
39540;SDS011;25219;52.244;21.006;2022-12-08T04:32:12;7.78;;;4.57;;
39540;SDS011;25219;52.244;21.006;2022-12-08T04:34:38;7.90;;;4.80;;
39540;SDS011;25219;52.244;21.006;2022-12-08T04:37:03;11.68;;;5.07;;
39540;SDS011;25219;52.244;21.006;2022-12-08T04:39:28;9.50;;;4.75;;
39540;SDS011;25219;52.244;21.006;2022-12-08T04:41:53;11.88;;;5.45;;
39540;SDS011;25219;52.244;21.006;2022-12-08T04:44:19;9.95;;;4.28;;
39540;SDS011;25219;52.244;21.006;2022-12-08T04:46:44;9.98;;;4.93;;
39540;SDS011;25219;52.244;21.006;2022-12-08T04:49:09;7.60;;;4.50;;
39540;SDS011;25219;52.244;21.006;2022-12-08T04:51:34;10.60;;;4.85;;
39540;SDS011;25219;52.244;21.006;2022-12-08T04:53:59;12.05;;;5.65;;
39540;SDS011;25219;52.244;21.006;2022-12-08T04:56:25;10.40;;;5.65;;
39540;SDS011;25219;52.244;21.006;2022-12-08T04:58:50;10.35;;;5.75;;
39540;SDS011;25219;52.244;21.006;2022-12-08T05:01:15;8.60;;;5.32;;
39540;SDS011;25219;52.244;21.006;2022-12-08T05:03:40;14.52;;;5.22;;
39540;SDS011;25219;52.244;21.006;2022-12-08T05:06:09;8.85;;;5.93;;
39540;SDS011;25219;52.244;21.006;2022-12-08T05:08:36;11.88;;;5.20;;
39540;SDS011;25219;52.244;21.006;2022-12-08T05:11:05;13.10;;;5.30;;
39540;SDS011;25219;52.244;21.006;2022-12-08T05:13:30;5.57;;;4.60;;
39540;SDS011;25219;52.244;21.006;2022-12-08T05:16:09;9.18;;;5.07;;
39540;SDS011;25219;52.244;21.006;2022-12-08T05:18:35;10.25;;;5.95;;
39540;SDS011;25219;52.244;21.006;2022-12-08T05:21:00;14.85;;;4.90;;
39540;SDS011;25219;52.244;21.006;2022-12-08T05:23:26;10.38;;;5.57;;
39540;SDS011;25219;52.244;21.006;2022-12-08T05:25:51;10.00;;;5.45;;
39540;SDS011;25219;52.244;21.006;2022-12-08T05:28:16;14.55;;;5.68;;
39540;SDS011;25219;52.244;21.006;2022-12-08T05:30:42;11.10;;;5.33;;
39540;SDS011;25219;52.244;21.006;2022-12-08T05:33:07;11.35;;;5.22;;
39540;SDS011;25219;52.244;21.006;2022-12-08T05:35:32;12.05;;;5.28;;
39540;SDS011;25219;52.244;21.006;2022-12-08T05:37:57;12.55;;;5.75;;
39540;SDS011;25219;52.244;21.006;2022-12-08T05:40:22;13.95;;;5.22;;
39540;SDS011;25219;52.244;21.006;2022-12-08T05:42:48;8.60;;;5.00;;
39540;SDS011;25219;52.244;21.006;2022-12-08T05:45:13;10.43;;;5.60;;
39540;SDS011;25219;52.244;21.006;2022-12-08T05:47:38;13.55;;;5.68;;
39540;SDS011;25219;52.244;21.006;2022-12-08T05:50:04;14.07;;;5.73;;
39540;SDS011;25219;52.244;21.006;2022-12-08T05:52:30;10.00;;;5.93;;
39540;SDS011;25219;52.244;21.006;2022-12-08T05:54:55;14.63;;;6.10;;
39540;SDS011;25219;52.244;21.006;2022-12-08T05:57:20;17.80;;;5.93;;
39540;SDS011;25219;52.244;21.006;2022-12-08T05:59:46;8.95;;;6.22;;
39540;SDS011;25219;52.244;21.006;2022-12-08T06:02:11;12.90;;;6.50;;
39540;SDS011;25219;52.244;21.006;2022-12-08T06:04:36;15.57;;;5.22;;
39540;SDS011;25219;52.244;21.006;2022-12-08T06:07:01;12.35;;;6.03;;
39540;SDS011;25219;52.244;21.006;2022-12-08T06:09:27;14.02;;;5.45;;
39540;SDS011;25219;52.244;21.006;2022-12-08T06:11:52;12.68;;;5.75;;
39540;SDS011;25219;52.244;21.006;2022-12-08T06:14:17;17.42;;;6.00;;
39540;SDS011;25219;52.244;21.006;2022-12-08T06:16:42;11.87;;;6.07;;
39540;SDS011;25219;52.244;21.006;2022-12-08T06:19:08;12.40;;;5.80;;
39540;SDS011;25219;52.244;21.006;2022-12-08T06:21:33;12.75;;;6.85;;
39540;SDS011;25219;52.244;21.006;2022-12-08T06:23:58;8.95;;;5.47;;
39540;SDS011;25219;52.244;21.006;2022-12-08T06:26:23;11.70;;;6.03;;
39540;SDS011;25219;52.244;21.006;2022-12-08T06:28:49;17.90;;;6.18;;
39540;SDS011;25219;52.244;21.006;2022-12-08T06:31:15;12.90;;;6.80;;
39540;SDS011;25219;52.244;21.006;2022-12-08T06:33:41;10.38;;;6.20;;
39540;SDS011;25219;52.244;21.006;2022-12-08T06:36:06;13.57;;;6.40;;
39540;SDS011;25219;52.244;21.006;2022-12-08T06:38:32;15.98;;;6.47;;
39540;SDS011;25219;52.244;21.006;2022-12-08T06:40:57;17.77;;;7.00;;
39540;SDS011;25219;52.244;21.006;2022-12-08T06:43:23;14.70;;;6.68;;
39540;SDS011;25219;52.244;21.006;2022-12-08T06:45:48;47.38;;;22.33;;
39540;SDS011;25219;52.244;21.006;2022-12-08T06:48:14;16.23;;;8.52;;
39540;SDS011;25219;52.244;21.006;2022-12-08T06:50:39;15.18;;;7.28;;
39540;SDS011;25219;52.244;21.006;2022-12-08T06:53:05;10.13;;;6.38;;
39540;SDS011;25219;52.244;21.006;2022-12-08T06:55:30;15.73;;;6.65;;
39540;SDS011;25219;52.244;21.006;2022-12-08T06:57:55;12.38;;;6.88;;
39540;SDS011;25219;52.244;21.006;2022-12-08T07:00:21;12.80;;;5.97;;
39540;SDS011;25219;52.244;21.006;2022-12-08T07:02:47;19.77;;;7.60;;
39540;SDS011;25219;52.244;21.006;2022-12-08T07:05:12;13.00;;;6.20;;
39540;SDS011;25219;52.244;21.006;2022-12-08T07:07:37;12.48;;;6.07;;
39540;SDS011;25219;52.244;21.006;2022-12-08T07:10:03;11.25;;;5.68;;
39540;SDS011;25219;52.244;21.006;2022-12-08T07:12:28;10.50;;;5.88;;
39540;SDS011;25219;52.244;21.006;2022-12-08T07:14:53;16.67;;;7.17;;
39540;SDS011;25219;52.244;21.006;2022-12-08T07:17:18;13.65;;;6.47;;
39540;SDS011;25219;52.244;21.006;2022-12-08T07:19:44;12.57;;;6.13;;
39540;SDS011;25219;52.244;21.006;2022-12-08T07:22:09;12.63;;;6.73;;
39540;SDS011;25219;52.244;21.006;2022-12-08T07:24:34;14.15;;;6.70;;
39540;SDS011;25219;52.244;21.006;2022-12-08T07:26:59;12.93;;;5.82;;
39540;SDS011;25219;52.244;21.006;2022-12-08T07:29:25;14.18;;;6.30;;
39540;SDS011;25219;52.244;21.006;2022-12-08T07:31:50;14.23;;;6.27;;
39540;SDS011;25219;52.244;21.006;2022-12-08T07:34:15;13.18;;;6.25;;
39540;SDS011;25219;52.244;21.006;2022-12-08T07:36:40;14.38;;;6.05;;
39540;SDS011;25219;52.244;21.006;2022-12-08T07:39:05;13.35;;;6.25;;
39540;SDS011;25219;52.244;21.006;2022-12-08T07:41:31;14.27;;;6.25;;
39540;SDS011;25219;52.244;21.006;2022-12-08T07:43:57;100.25;;;39.65;;
39540;SDS011;25219;52.244;21.006;2022-12-08T07:46:23;13.60;;;7.20;;
39540;SDS011;25219;52.244;21.006;2022-12-08T07:48:48;12.95;;;6.68;;
39540;SDS011;25219;52.244;21.006;2022-12-08T07:51:14;15.55;;;6.63;;
39540;SDS011;25219;52.244;21.006;2022-12-08T07:53:40;17.55;;;6.63;;
39540;SDS011;25219;52.244;21.006;2022-12-08T07:56:06;13.70;;;5.78;;
39540;SDS011;25219;52.244;21.006;2022-12-08T07:58:31;14.93;;;6.45;;
39540;SDS011;25219;52.244;21.006;2022-12-08T08:00:56;9.90;;;6.13;;
39540;SDS011;25219;52.244;21.006;2022-12-08T08:03:22;9.67;;;5.40;;
39540;SDS011;25219;52.244;21.006;2022-12-08T08:05:47;15.55;;;5.78;;
39540;SDS011;25219;52.244;21.006;2022-12-08T08:08:14;12.50;;;6.07;;
39540;SDS011;25219;52.244;21.006;2022-12-08T08:10:39;13.10;;;6.25;;
39540;SDS011;25219;52.244;21.006;2022-12-08T08:13:05;14.32;;;6.82;;
39540;SDS011;25219;52.244;21.006;2022-12-08T08:15:30;15.67;;;6.97;;
39540;SDS011;25219;52.244;21.006;2022-12-08T08:17:56;15.85;;;5.93;;
39540;SDS011;25219;52.244;21.006;2022-12-08T08:20:21;15.95;;;6.03;;
39540;SDS011;25219;52.244;21.006;2022-12-08T08:22:47;14.88;;;5.95;;
39540;SDS011;25219;52.244;21.006;2022-12-08T08:25:14;17.25;;;6.60;;
39540;SDS011;25219;52.244;21.006;2022-12-08T08:27:39;21.48;;;5.95;;
39540;SDS011;25219;52.244;21.006;2022-12-08T08:30:07;14.45;;;6.07;;
39540;SDS011;25219;52.244;21.006;2022-12-08T08:32:32;15.30;;;5.80;;
39540;SDS011;25219;52.244;21.006;2022-12-08T08:34:57;16.23;;;6.15;;
39540;SDS011;25219;52.244;21.006;2022-12-08T08:37:23;13.43;;;6.60;;
39540;SDS011;25219;52.244;21.006;2022-12-08T08:39:48;12.88;;;6.43;;
39540;SDS011;25219;52.244;21.006;2022-12-08T08:42:13;15.40;;;6.27;;
39540;SDS011;25219;52.244;21.006;2022-12-08T08:44:39;17.83;;;6.18;;
39540;SDS011;25219;52.244;21.006;2022-12-08T08:47:04;13.82;;;6.10;;
39540;SDS011;25219;52.244;21.006;2022-12-08T08:49:30;17.27;;;6.35;;
39540;SDS011;25219;52.244;21.006;2022-12-08T08:51:55;13.57;;;5.75;;
39540;SDS011;25219;52.244;21.006;2022-12-08T08:54:20;17.10;;;6.03;;
39540;SDS011;25219;52.244;21.006;2022-12-08T08:56:46;16.73;;;6.53;;
39540;SDS011;25219;52.244;21.006;2022-12-08T08:59:12;112.88;;;49.72;;
39540;SDS011;25219;52.244;21.006;2022-12-08T09:01:37;26.63;;;13.65;;
39540;SDS011;25219;52.244;21.006;2022-12-08T09:04:02;15.18;;;7.80;;
39540;SDS011;25219;52.244;21.006;2022-12-08T09:06:28;14.07;;;7.38;;
39540;SDS011;25219;52.244;21.006;2022-12-08T09:08:53;13.73;;;6.32;;
39540;SDS011;25219;52.244;21.006;2022-12-08T09:11:18;18.35;;;7.97;;
39540;SDS011;25219;52.244;21.006;2022-12-08T09:13:46;12.98;;;5.82;;
39540;SDS011;25219;52.244;21.006;2022-12-08T09:16:12;15.38;;;6.03;;
39540;SDS011;25219;52.244;21.006;2022-12-08T09:18:37;11.18;;;6.03;;
39540;SDS011;25219;52.244;21.006;2022-12-08T09:21:04;18.33;;;7.07;;
39540;SDS011;25219;52.244;21.006;2022-12-08T09:23:29;23.60;;;7.70;;
39540;SDS011;25219;52.244;21.006;2022-12-08T09:25:54;19.02;;;7.40;;
39540;SDS011;25219;52.244;21.006;2022-12-08T09:28:19;15.97;;;7.23;;
39540;SDS011;25219;52.244;21.006;2022-12-08T09:30:45;16.27;;;7.30;;
39540;SDS011;25219;52.244;21.006;2022-12-08T09:33:10;14.35;;;6.53;;
39540;SDS011;25219;52.244;21.006;2022-12-08T09:35:35;12.20;;;6.68;;
39540;SDS011;25219;52.244;21.006;2022-12-08T09:38:00;19.58;;;7.38;;
39540;SDS011;25219;52.244;21.006;2022-12-08T09:40:26;18.05;;;7.03;;
39540;SDS011;25219;52.244;21.006;2022-12-08T09:42:58;15.65;;;6.93;;
39540;SDS011;25219;52.244;21.006;2022-12-08T09:45:27;15.82;;;8.38;;
39540;SDS011;25219;52.244;21.006;2022-12-08T09:48:03;18.60;;;7.75;;
39540;SDS011;25219;52.244;21.006;2022-12-08T09:50:42;15.52;;;7.32;;
39540;SDS011;25219;52.244;21.006;2022-12-08T09:53:18;21.60;;;7.97;;
39540;SDS011;25219;52.244;21.006;2022-12-08T09:58:31;17.40;;;9.07;;
39540;SDS011;25219;52.244;21.006;2022-12-08T10:00:59;19.55;;;9.38;;
39540;SDS011;25219;52.244;21.006;2022-12-08T10:03:27;17.48;;;9.38;;
39540;SDS011;25219;52.244;21.006;2022-12-08T10:05:57;21.90;;;9.80;;
39540;SDS011;25219;52.244;21.006;2022-12-08T10:08:27;20.25;;;8.65;;
39540;SDS011;25219;52.244;21.006;2022-12-08T10:10:55;18.20;;;8.90;;
39540;SDS011;25219;52.244;21.006;2022-12-08T10:16:24;20.92;;;10.00;;
39540;SDS011;25219;52.244;21.006;2022-12-08T10:18:56;18.00;;;9.10;;
39540;SDS011;25219;52.244;21.006;2022-12-08T10:21:24;23.13;;;10.02;;
39540;SDS011;25219;52.244;21.006;2022-12-08T10:23:52;22.13;;;9.63;;
39540;SDS011;25219;52.244;21.006;2022-12-08T10:26:20;22.15;;;10.27;;
39540;SDS011;25219;52.244;21.006;2022-12-08T10:28:45;19.67;;;9.90;;
39540;SDS011;25219;52.244;21.006;2022-12-08T10:31:17;19.08;;;11.02;;
39540;SDS011;25219;52.244;21.006;2022-12-08T10:33:43;21.13;;;10.00;;
39540;SDS011;25219;52.244;21.006;2022-12-08T10:36:09;25.23;;;10.63;;
39540;SDS011;25219;52.244;21.006;2022-12-08T10:38:36;23.83;;;10.15;;
39540;SDS011;25219;52.244;21.006;2022-12-08T10:41:04;20.67;;;10.48;;
39540;SDS011;25219;52.244;21.006;2022-12-08T10:43:30;20.27;;;10.30;;
39540;SDS011;25219;52.244;21.006;2022-12-08T10:46:06;25.70;;;10.27;;
39540;SDS011;25219;52.244;21.006;2022-12-08T10:48:31;18.98;;;10.65;;
39540;SDS011;25219;52.244;21.006;2022-12-08T10:50:57;20.52;;;10.25;;
39540;SDS011;25219;52.244;21.006;2022-12-08T10:53:24;21.58;;;10.93;;
39540;SDS011;25219;52.244;21.006;2022-12-08T10:55:51;23.75;;;10.68;;
39540;SDS011;25219;52.244;21.006;2022-12-08T10:58:23;21.88;;;11.75;;
39540;SDS011;25219;52.244;21.006;2022-12-08T11:03:44;18.92;;;11.18;;
39540;SDS011;25219;52.244;21.006;2022-12-08T11:09:21;18.60;;;10.85;;
39540;SDS011;25219;52.244;21.006;2022-12-08T11:11:56;19.90;;;10.18;;
39540;SDS011;25219;52.244;21.006;2022-12-08T11:16:50;19.17;;;11.02;;
39540;SDS011;25219;52.244;21.006;2022-12-08T11:19:18;22.52;;;11.98;;
39540;SDS011;25219;52.244;21.006;2022-12-08T11:21:44;24.98;;;11.45;;
39540;SDS011;25219;52.244;21.006;2022-12-08T11:26:38;24.10;;;11.93;;
39540;SDS011;25219;52.244;21.006;2022-12-08T11:29:06;22.48;;;11.63;;
39540;SDS011;25219;52.244;21.006;2022-12-08T11:31:33;26.55;;;12.18;;
39540;SDS011;25219;52.244;21.006;2022-12-08T11:33:59;25.13;;;12.45;;
39540;SDS011;25219;52.244;21.006;2022-12-08T11:36:25;25.13;;;12.13;;
39540;SDS011;25219;52.244;21.006;2022-12-08T11:38:54;24.92;;;12.00;;
39540;SDS011;25219;52.244;21.006;2022-12-08T11:41:21;22.52;;;12.52;;
39540;SDS011;25219;52.244;21.006;2022-12-08T11:44:02;27.10;;;13.13;;
39540;SDS011;25219;52.244;21.006;2022-12-08T11:46:45;27.73;;;13.38;;
39540;SDS011;25219;52.244;21.006;2022-12-08T11:49:13;26.85;;;14.05;;
39540;SDS011;25219;52.244;21.006;2022-12-08T11:54:39;29.13;;;14.95;;
39540;SDS011;25219;52.244;21.006;2022-12-08T11:57:07;25.83;;;14.68;;
39540;SDS011;25219;52.244;21.006;2022-12-08T11:59:39;27.95;;;14.45;;
39540;SDS011;25219;52.244;21.006;2022-12-08T12:02:19;30.90;;;15.43;;
39540;SDS011;25219;52.244;21.006;2022-12-08T12:04:52;29.35;;;14.48;;
39540;SDS011;25219;52.244;21.006;2022-12-08T12:09:54;26.50;;;14.52;;
39540;SDS011;25219;52.244;21.006;2022-12-08T12:22:59;29.63;;;15.85;;
39540;SDS011;25219;52.244;21.006;2022-12-08T12:25:25;29.05;;;15.05;;
39540;SDS011;25219;52.244;21.006;2022-12-08T12:27:51;35.30;;;15.95;;
39540;SDS011;25219;52.244;21.006;2022-12-08T12:30:23;30.38;;;15.65;;
39540;SDS011;25219;52.244;21.006;2022-12-08T12:32:51;27.58;;;14.98;;
39540;SDS011;25219;52.244;21.006;2022-12-08T12:35:37;26.85;;;14.27;;
39540;SDS011;25219;52.244;21.006;2022-12-08T12:38:05;29.42;;;14.95;;
39540;SDS011;25219;52.244;21.006;2022-12-08T12:40:56;28.33;;;14.88;;
39540;SDS011;25219;52.244;21.006;2022-12-08T12:43:24;32.83;;;15.45;;
39540;SDS011;25219;52.244;21.006;2022-12-08T12:45:55;31.48;;;15.70;;
39540;SDS011;25219;52.244;21.006;2022-12-08T12:48:37;28.95;;;14.80;;
39540;SDS011;25219;52.244;21.006;2022-12-08T12:51:02;33.55;;;16.25;;
39540;SDS011;25219;52.244;21.006;2022-12-08T12:53:48;27.98;;;15.63;;
39540;SDS011;25219;52.244;21.006;2022-12-08T12:56:45;32.10;;;15.40;;
39540;SDS011;25219;52.244;21.006;2022-12-08T12:59:10;30.65;;;16.23;;
39540;SDS011;25219;52.244;21.006;2022-12-08T13:01:47;30.00;;;15.45;;
39540;SDS011;25219;52.244;21.006;2022-12-08T13:04:15;32.40;;;16.15;;
39540;SDS011;25219;52.244;21.006;2022-12-08T13:06:42;29.75;;;16.58;;
39540;SDS011;25219;52.244;21.006;2022-12-08T13:09:21;33.58;;;15.73;;
39540;SDS011;25219;52.244;21.006;2022-12-08T13:11:50;30.00;;;15.73;;
39540;SDS011;25219;52.244;21.006;2022-12-08T13:14:24;29.80;;;15.55;;
39540;SDS011;25219;52.244;21.006;2022-12-08T13:16:51;31.48;;;14.95;;
39540;SDS011;25219;52.244;21.006;2022-12-08T13:19:17;38.50;;;15.80;;
39540;SDS011;25219;52.244;21.006;2022-12-08T13:21:42;32.10;;;16.25;;
39540;SDS011;25219;52.244;21.006;2022-12-08T13:36:46;27.55;;;14.55;;
39540;SDS011;25219;52.244;21.006;2022-12-08T13:39:14;31.75;;;16.02;;
39540;SDS011;25219;52.244;21.006;2022-12-08T13:41:46;33.63;;;17.92;;
39540;SDS011;25219;52.244;21.006;2022-12-08T13:44:14;31.90;;;15.57;;
39540;SDS011;25219;52.244;21.006;2022-12-08T13:46:44;31.60;;;16.37;;
39540;SDS011;25219;52.244;21.006;2022-12-08T13:49:14;33.33;;;17.15;;
39540;SDS011;25219;52.244;21.006;2022-12-08T13:51:42;31.50;;;15.75;;
39540;SDS011;25219;52.244;21.006;2022-12-08T13:54:23;34.97;;;17.17;;
39540;SDS011;25219;52.244;21.006;2022-12-08T13:56:50;34.47;;;16.30;;
39540;SDS011;25219;52.244;21.006;2022-12-08T14:01:46;36.22;;;17.75;;
39540;SDS011;25219;52.244;21.006;2022-12-08T14:04:13;29.83;;;16.45;;
39540;SDS011;25219;52.244;21.006;2022-12-08T14:06:41;35.97;;;17.98;;
39540;SDS011;25219;52.244;21.006;2022-12-08T14:09:16;33.30;;;17.67;;
39540;SDS011;25219;52.244;21.006;2022-12-08T14:11:43;42.10;;;18.88;;
39540;SDS011;25219;52.244;21.006;2022-12-08T14:16:41;32.95;;;17.30;;
39540;SDS011;25219;52.244;21.006;2022-12-08T14:19:17;36.47;;;17.88;;
39540;SDS011;25219;52.244;21.006;2022-12-08T14:21:47;34.72;;;17.75;;
39540;SDS011;25219;52.244;21.006;2022-12-08T14:24:12;34.08;;;18.35;;
39540;SDS011;25219;52.244;21.006;2022-12-08T14:26:37;36.25;;;17.88;;
39540;SDS011;25219;52.244;21.006;2022-12-08T14:29:05;48.60;;;19.20;;
39540;SDS011;25219;52.244;21.006;2022-12-08T14:31:30;35.95;;;17.48;;
39540;SDS011;25219;52.244;21.006;2022-12-08T14:33:55;37.47;;;17.92;;
39540;SDS011;25219;52.244;21.006;2022-12-08T14:36:21;43.78;;;18.92;;
39540;SDS011;25219;52.244;21.006;2022-12-08T14:38:46;33.53;;;17.90;;
39540;SDS011;25219;52.244;21.006;2022-12-08T14:41:12;44.35;;;18.25;;
39540;SDS011;25219;52.244;21.006;2022-12-08T14:43:37;33.90;;;17.17;;
39540;SDS011;25219;52.244;21.006;2022-12-08T14:46:17;33.35;;;17.45;;
39540;SDS011;25219;52.244;21.006;2022-12-08T14:48:43;34.45;;;16.17;;
39540;SDS011;25219;52.244;21.006;2022-12-08T14:58:50;35.78;;;17.58;;
39540;SDS011;25219;52.244;21.006;2022-12-08T15:01:25;34.88;;;15.80;;
39540;SDS011;25219;52.244;21.006;2022-12-08T15:03:50;29.25;;;15.82;;
39540;SDS011;25219;52.244;21.006;2022-12-08T15:06:16;34.10;;;16.15;;
39540;SDS011;25219;52.244;21.006;2022-12-08T15:08:49;32.67;;;16.25;;
39540;SDS011;25219;52.244;21.006;2022-12-08T15:13:47;38.47;;;17.27;;
39540;SDS011;25219;52.244;21.006;2022-12-08T15:16:26;30.10;;;16.52;;
39540;SDS011;25219;52.244;21.006;2022-12-08T15:19:00;34.72;;;15.85;;
39540;SDS011;25219;52.244;21.006;2022-12-08T15:21:29;34.83;;;17.17;;
39540;SDS011;25219;52.244;21.006;2022-12-08T15:23:55;33.97;;;16.40;;
39540;SDS011;25219;52.244;21.006;2022-12-08T15:26:24;33.20;;;16.55;;
39540;SDS011;25219;52.244;21.006;2022-12-08T15:28:50;34.40;;;15.43;;
39540;SDS011;25219;52.244;21.006;2022-12-08T15:31:16;31.48;;;16.45;;
39540;SDS011;25219;52.244;21.006;2022-12-08T15:37:20;33.00;;;16.83;;
39540;SDS011;25219;52.244;21.006;2022-12-08T15:39:46;36.33;;;16.05;;
39540;SDS011;25219;52.244;21.006;2022-12-08T15:42:12;33.55;;;16.52;;
39540;SDS011;25219;52.244;21.006;2022-12-08T15:44:37;43.63;;;16.38;;
39540;SDS011;25219;52.244;21.006;2022-12-08T15:47:03;33.28;;;16.48;;
39540;SDS011;25219;52.244;21.006;2022-12-08T15:49:29;33.22;;;16.63;;
39540;SDS011;25219;52.244;21.006;2022-12-08T15:51:59;33.17;;;17.83;;
39540;SDS011;25219;52.244;21.006;2022-12-08T15:54:24;33.63;;;17.52;;
39540;SDS011;25219;52.244;21.006;2022-12-08T15:56:51;36.17;;;17.75;;
39540;SDS011;25219;52.244;21.006;2022-12-08T15:59:17;33.88;;;16.77;;
39540;SDS011;25219;52.244;21.006;2022-12-08T16:01:43;35.17;;;17.60;;
39540;SDS011;25219;52.244;21.006;2022-12-08T16:04:12;32.92;;;16.83;;